createdAt,value
2018-02-25T00:00:54.657Z,14.50
2018-02-25T00:03:20.822Z,16.03
2018-02-25T00:05:47.057Z,13.30
2018-02-25T00:08:14.017Z,15.70
2018-02-25T00:10:40.925Z,14.50
2018-02-25T00:13:07.066Z,17.30
2018-02-25T00:15:33.249Z,16.10
2018-02-25T00:17:59.494Z,18.00
2018-02-25T00:20:25.621Z,17.67
2018-02-25T00:22:51.835Z,27.50
2018-02-25T00:25:18.019Z,15.03
2018-02-25T00:27:44.952Z,16.20
2018-02-25T00:30:11.157Z,18.00
2018-02-25T00:32:37.326Z,16.20
2018-02-25T00:35:04.308Z,17.43
2018-02-25T00:37:30.524Z,21.33
2018-02-25T00:39:56.772Z,16.77
2018-02-25T00:42:23.015Z,22.93
2018-02-25T00:44:49.243Z,18.47
2018-02-25T00:47:15.458Z,17.33
2018-02-25T00:49:41.607Z,18.37
2018-02-25T00:52:07.796Z,20.60
2018-02-25T00:54:34.082Z,16.30
2018-02-25T00:57:00.294Z,18.33
2018-02-25T00:59:26.454Z,14.67
2018-02-25T01:01:53.329Z,19.90
2018-02-25T01:04:19.518Z,20.93
2018-02-25T01:06:46.445Z,15.73
2018-02-25T01:09:13.354Z,13.97
2018-02-25T01:11:39.560Z,19.30
2018-02-25T01:14:05.759Z,15.67
2018-02-25T01:16:32.636Z,19.73
2018-02-25T01:18:58.815Z,18.70
2018-02-25T01:21:25.003Z,22.60
2018-02-25T01:23:51.270Z,22.63
2018-02-25T01:26:17.487Z,14.13
2018-02-25T01:28:43.671Z,16.33
2018-02-25T01:31:09.875Z,14.17
2018-02-25T01:33:36.763Z,16.53
2018-02-25T01:36:02.929Z,19.30
2018-02-25T01:38:29.181Z,16.83
2018-02-25T01:40:55.404Z,17.63
2018-02-25T01:43:22.375Z,15.13
2018-02-25T01:45:48.576Z,21.53
2018-02-25T01:48:15.544Z,19.70
2018-02-25T01:50:54.187Z,16.30
2018-02-25T01:53:20.398Z,16.73
2018-02-25T01:55:46.531Z,18.93
2018-02-25T01:58:12.750Z,15.33
2018-02-25T02:00:38.945Z,16.70
2018-02-25T02:03:05.120Z,19.63
2018-02-25T02:05:31.346Z,15.37
2018-02-25T02:07:57.582Z,20.80
2018-02-25T02:10:23.764Z,20.60
2018-02-25T02:12:49.936Z,18.10
2018-02-25T02:15:16.101Z,19.10
2018-02-25T02:17:42.276Z,21.47
2018-02-25T02:20:08.483Z,18.17
2018-02-25T02:22:34.674Z,18.20
2018-02-25T02:25:00.885Z,19.30
2018-02-25T02:27:27.082Z,22.00
2018-02-25T02:29:53.232Z,17.50
2018-02-25T02:32:19.474Z,18.50
2018-02-25T02:34:45.647Z,18.63
2018-02-25T02:37:11.817Z,15.83
2018-02-25T02:39:37.935Z,14.17
2018-02-25T02:42:04.075Z,18.30
2018-02-25T02:44:30.251Z,18.50
2018-02-25T02:46:57.116Z,20.07
2018-02-25T02:49:23.288Z,17.00
2018-02-25T02:51:49.520Z,16.27
2018-02-25T02:54:15.660Z,19.47
2018-02-25T02:56:42.603Z,24.17
2018-02-25T02:59:08.829Z,18.23
2018-02-25T03:01:35.716Z,14.00
2018-02-25T03:04:01.977Z,16.93
2018-02-25T03:06:28.181Z,19.90
2018-02-25T03:08:54.365Z,17.73
2018-02-25T03:11:21.308Z,18.67
2018-02-25T03:13:48.226Z,17.63
2018-02-25T03:16:14.389Z,17.93
2018-02-25T03:18:41.318Z,17.03
2018-02-25T03:21:08.283Z,19.60
2018-02-25T03:23:35.184Z,19.73
2018-02-25T03:26:01.376Z,21.27
2018-02-25T03:28:27.646Z,20.23
2018-02-25T03:30:53.794Z,16.73
2018-02-25T03:33:20.790Z,15.33
2018-02-25T03:35:46.983Z,22.90
2018-02-25T03:38:13.945Z,21.70
2018-02-25T03:40:40.177Z,18.33
2018-02-25T03:43:06.348Z,20.50
2018-02-25T03:45:32.584Z,18.00
2018-02-25T03:47:58.710Z,19.20
2018-02-25T03:50:24.931Z,18.40
2018-02-25T03:52:51.116Z,18.10
2018-02-25T03:55:17.306Z,20.30
2018-02-25T03:57:44.279Z,22.63
2018-02-25T04:00:10.499Z,19.50
2018-02-25T04:02:36.668Z,21.77
2018-02-25T04:05:02.874Z,19.87
2018-02-25T04:07:29.059Z,20.90
2018-02-25T04:09:55.947Z,19.93
2018-02-25T04:12:22.157Z,21.73
2018-02-25T04:14:48.370Z,22.43
2018-02-25T04:17:14.520Z,21.70
2018-02-25T04:19:40.716Z,18.93
2018-02-25T04:22:07.632Z,18.70
2018-02-25T04:24:33.797Z,21.93
2018-02-25T04:27:00.676Z,16.17
2018-02-25T04:29:26.872Z,18.97
2018-02-25T04:31:53.059Z,15.13
2018-02-25T04:34:19.307Z,20.80
2018-02-25T04:36:46.231Z,18.83
2018-02-25T04:39:12.393Z,22.67
2018-02-25T04:41:39.340Z,19.13
2018-02-25T04:44:06.266Z,16.50
2018-02-25T04:46:32.482Z,18.87
2018-02-25T04:48:58.655Z,20.93
2018-02-25T04:51:24.838Z,19.57
2018-02-25T04:53:51.811Z,17.40
2018-02-25T04:56:18.732Z,21.83
2018-02-25T04:58:44.959Z,16.03
2018-02-25T05:01:11.094Z,16.77
2018-02-25T05:03:37.250Z,18.87
2018-02-25T05:06:03.410Z,18.00
2018-02-25T05:08:29.569Z,17.03
2018-02-25T05:10:55.761Z,17.90
2018-02-25T05:13:21.996Z,18.03
2018-02-25T05:15:48.184Z,17.33
2018-02-25T05:18:14.416Z,18.40
2018-02-25T05:20:40.582Z,18.70
2018-02-25T05:23:06.769Z,20.97
2018-02-25T05:25:32.977Z,16.20
2018-02-25T05:27:59.923Z,16.93
2018-02-25T05:30:26.830Z,19.70
2018-02-25T05:32:53.013Z,17.27
2018-02-25T05:35:19.222Z,17.63
2018-02-25T05:37:46.130Z,17.30
2018-02-25T05:40:12.350Z,17.30
2018-02-25T05:42:38.548Z,16.00
2018-02-25T05:45:04.703Z,18.53
2018-02-25T05:47:30.891Z,17.70
2018-02-25T05:49:57.105Z,14.50
2018-02-25T05:52:24.061Z,15.37
2018-02-25T05:54:50.219Z,18.90
2018-02-25T05:57:16.376Z,20.10
2018-02-25T05:59:42.531Z,14.37
2018-02-25T06:02:09.414Z,16.77
2018-02-25T06:04:35.656Z,13.83
2018-02-25T06:07:01.838Z,14.80
2018-02-25T06:09:28.796Z,16.23
2018-02-25T06:11:54.955Z,15.20
2018-02-25T06:14:21.139Z,16.47
2018-02-25T06:16:48.070Z,17.67
2018-02-25T06:19:14.956Z,18.60
2018-02-25T06:21:41.130Z,17.70
2018-02-25T06:24:07.274Z,16.17
2018-02-25T06:26:34.203Z,14.33
2018-02-25T06:29:00.407Z,17.43
2018-02-25T06:31:26.660Z,13.30
2018-02-25T06:33:53.558Z,16.10
2018-02-25T06:36:19.752Z,14.40
2018-02-25T06:38:46.712Z,16.67
2018-02-25T06:41:12.915Z,16.00
2018-02-25T06:43:39.896Z,19.70
2018-02-25T06:46:06.097Z,12.23
2018-02-25T06:48:33.043Z,13.17
2018-02-25T06:50:59.945Z,17.77
2018-02-25T06:53:26.171Z,16.50
2018-02-25T06:55:52.286Z,14.00
2018-02-25T06:58:18.492Z,15.37
2018-02-25T07:00:44.690Z,15.50
2018-02-25T07:03:11.771Z,14.10
2018-02-25T07:05:37.952Z,12.00
2018-02-25T07:08:04.127Z,13.97
2018-02-25T07:10:30.311Z,18.87
2018-02-25T07:12:56.576Z,15.13
2018-02-25T07:15:22.786Z,13.80
2018-02-25T07:17:48.955Z,13.63
2018-02-25T07:20:15.174Z,15.90
2018-02-25T07:22:41.363Z,16.90
2018-02-25T07:25:08.325Z,18.13
2018-02-25T07:27:34.596Z,16.23
2018-02-25T07:30:00.822Z,18.13
2018-02-25T07:32:27.087Z,15.90
2018-02-25T07:34:54.040Z,13.93
2018-02-25T07:37:21.007Z,13.70
2018-02-25T07:39:47.276Z,12.00
2018-02-25T07:42:13.509Z,22.63
2018-02-25T07:44:39.684Z,19.97
2018-02-25T07:47:05.823Z,18.70
2018-02-25T07:49:31.989Z,19.37
2018-02-25T07:51:58.142Z,17.80
2018-02-25T07:54:25.024Z,15.27
2018-02-25T07:56:51.254Z,16.90
2018-02-25T07:59:17.533Z,14.97
2018-02-25T08:01:44.438Z,18.40
2018-02-25T08:04:10.688Z,15.23
2018-02-25T08:06:36.882Z,13.70
2018-02-25T08:09:03.173Z,15.60
2018-02-25T08:11:30.140Z,19.20
2018-02-25T08:13:56.329Z,15.83
2018-02-25T08:16:22.507Z,17.60
2018-02-25T08:18:48.656Z,12.50
2018-02-25T08:21:14.862Z,14.53
2018-02-25T08:23:41.109Z,16.60
2018-02-25T08:26:07.354Z,16.53
2018-02-25T08:28:33.577Z,13.10
2018-02-25T08:30:59.705Z,14.63
2018-02-25T08:33:25.857Z,15.07
2018-02-25T08:35:52.035Z,17.37
2018-02-25T08:38:18.196Z,13.70
2018-02-25T08:40:44.376Z,19.40
2018-02-25T08:43:10.513Z,16.47
2018-02-25T08:45:36.772Z,15.20
2018-02-25T08:48:03.692Z,20.00
2018-02-25T08:50:29.957Z,13.47
2018-02-25T08:52:56.166Z,16.90
2018-02-25T08:55:22.578Z,36.93
2018-02-25T08:57:48.809Z,41.43
2018-02-25T09:00:14.993Z,18.73
2018-02-25T09:02:41.957Z,16.37
2018-02-25T09:05:08.190Z,25.33
2018-02-25T09:07:34.409Z,13.13
2018-02-25T09:10:00.621Z,11.77
2018-02-25T09:12:27.592Z,20.73
2018-02-25T09:14:53.768Z,29.03
2018-02-25T09:17:19.974Z,32.43
2018-02-25T09:19:46.190Z,30.60
2018-02-25T09:22:12.449Z,11.80
2018-02-25T09:24:38.625Z,16.40
2018-02-25T09:27:04.888Z,13.13
2018-02-25T09:29:31.139Z,10.20
2018-02-25T09:31:57.344Z,12.93
2018-02-25T09:34:23.529Z,9.83
2018-02-25T09:36:50.449Z,9.17
2018-02-25T09:39:16.684Z,10.40
2018-02-25T09:41:43.612Z,10.30
2018-02-25T09:44:09.881Z,12.73
2018-02-25T09:46:36.076Z,11.17
2018-02-25T09:49:02.346Z,12.20
2018-02-25T09:51:28.607Z,8.37
2018-02-25T09:53:54.827Z,11.90
2018-02-25T09:56:21.066Z,8.27
2018-02-25T09:58:47.316Z,9.70
2018-02-25T10:01:13.574Z,12.03
2018-02-25T10:03:40.548Z,11.53
2018-02-25T10:06:06.799Z,13.33
2018-02-25T10:08:33.023Z,9.20
2018-02-25T10:10:59.223Z,12.67
2018-02-25T10:13:25.457Z,11.27
2018-02-25T10:15:51.659Z,9.27
2018-02-25T10:18:18.638Z,6.63
2018-02-25T10:20:44.900Z,9.70
2018-02-25T10:23:11.050Z,9.10
2018-02-25T10:25:37.992Z,9.37
2018-02-25T10:28:04.903Z,15.00
2018-02-25T10:30:31.123Z,11.97
2018-02-25T10:32:57.277Z,10.47
2018-02-25T10:35:23.396Z,14.03
2018-02-25T10:37:49.583Z,12.50
2018-02-25T10:40:15.760Z,11.10
2018-02-25T10:42:42.773Z,10.80
2018-02-25T10:45:08.971Z,9.27
2018-02-25T10:47:35.197Z,10.40
2018-02-25T10:50:02.153Z,9.50
2018-02-25T10:52:28.404Z,10.43
2018-02-25T10:54:54.621Z,12.00
2018-02-25T10:57:20.803Z,13.73
2018-02-25T10:59:47.755Z,7.67
2018-02-25T11:02:14.691Z,10.70
2018-02-25T11:04:40.885Z,10.03
2018-02-25T11:07:07.145Z,8.13
2018-02-25T11:09:33.342Z,11.40
2018-02-25T11:11:59.567Z,7.30
2018-02-25T11:14:25.838Z,6.57
2018-02-25T11:16:52.702Z,8.73
2018-02-25T11:19:19.608Z,17.00
2018-02-25T11:21:45.826Z,7.90
2018-02-25T11:24:12.038Z,9.47
2018-02-25T11:26:38.276Z,15.50
2018-02-25T11:29:04.519Z,8.67
2018-02-25T11:31:31.590Z,7.30
2018-02-25T11:33:57.651Z,6.83
2018-02-25T11:36:23.834Z,4.67
2018-02-25T11:38:50.815Z,8.43
2018-02-25T11:41:17.050Z,9.10
2018-02-25T11:43:43.265Z,9.53
2018-02-25T11:46:09.473Z,9.57
2018-02-25T11:48:36.745Z,10.40
2018-02-25T11:51:02.930Z,6.30
2018-02-25T11:53:29.168Z,8.60
2018-02-25T11:55:55.311Z,7.47
2018-02-25T11:58:22.229Z,7.07
2018-02-25T12:00:48.468Z,8.97
2018-02-25T12:03:14.694Z,8.80
2018-02-25T12:05:40.866Z,19.70
2018-02-25T12:08:07.091Z,6.83
2018-02-25T12:10:33.401Z,5.30
2018-02-25T12:13:00.365Z,6.47
2018-02-25T12:15:26.570Z,57.50
2018-02-25T12:17:53.480Z,13.23
2018-02-25T12:20:19.742Z,4.30
2018-02-25T12:22:46.712Z,8.13
2018-02-25T12:25:12.856Z,6.60
2018-02-25T12:27:39.101Z,5.60
2018-02-25T12:30:05.360Z,5.13
2018-02-25T12:32:31.592Z,9.30
2018-02-25T12:34:58.580Z,10.70
2018-02-25T12:37:24.738Z,5.83
2018-02-25T12:39:50.923Z,6.37
2018-02-25T12:42:17.178Z,4.73
2018-02-25T12:44:43.391Z,6.13
2018-02-25T12:47:09.576Z,5.60
2018-02-25T12:49:35.800Z,4.10
2018-02-25T12:52:02.019Z,6.87
2018-02-25T12:54:28.204Z,13.40
2018-02-25T12:56:54.392Z,4.50
2018-02-25T12:59:21.305Z,8.90
2018-02-25T13:01:47.501Z,5.07
2018-02-25T13:04:13.727Z,11.00
2018-02-25T13:06:39.895Z,6.23
2018-02-25T13:09:06.098Z,8.60
2018-02-25T13:11:32.319Z,5.00
2018-02-25T13:13:58.514Z,6.80
2018-02-25T13:16:24.732Z,6.37
2018-02-25T13:18:50.958Z,6.23
2018-02-25T13:21:17.934Z,5.43
2018-02-25T13:23:44.119Z,5.73
2018-02-25T13:26:11.066Z,8.00
2018-02-25T13:28:37.251Z,8.97
2018-02-25T13:31:03.416Z,9.77
2018-02-25T13:33:30.412Z,5.90
2018-02-25T13:35:56.610Z,25.80
2018-02-25T13:38:22.871Z,7.27
2018-02-25T13:40:49.110Z,4.00
2018-02-25T13:43:15.324Z,4.50
2018-02-25T13:45:41.544Z,7.77
2018-02-25T13:48:07.688Z,9.33
2018-02-25T13:50:33.865Z,6.17
2018-02-25T13:53:00.125Z,4.20
2018-02-25T13:55:26.388Z,4.70
2018-02-25T13:57:52.553Z,5.70
2018-02-25T14:00:18.743Z,6.13
2018-02-25T14:02:44.914Z,6.90
2018-02-25T14:05:11.827Z,3.90
2018-02-25T14:07:37.984Z,6.33
2018-02-25T14:10:04.960Z,3.70
2018-02-25T14:12:31.198Z,4.57
2018-02-25T14:14:57.366Z,8.40
2018-02-25T14:17:24.313Z,3.63
2018-02-25T14:19:50.552Z,3.97
2018-02-25T14:22:16.749Z,3.67
2018-02-25T14:24:42.928Z,3.20
2018-02-25T14:27:09.141Z,4.37
2018-02-25T14:29:36.059Z,3.73
2018-02-25T14:32:02.236Z,3.63
2018-02-25T14:34:28.401Z,3.03
2018-02-25T14:36:54.717Z,5.10
2018-02-25T14:39:20.953Z,3.50
2018-02-25T14:41:47.157Z,5.33
2018-02-25T14:44:13.387Z,6.10
2018-02-25T14:46:39.564Z,3.40
2018-02-25T14:49:05.740Z,4.70
2018-02-25T14:51:31.947Z,5.10
2018-02-25T14:53:58.886Z,5.27
2018-02-25T14:56:25.068Z,5.63
2018-02-25T14:58:51.201Z,3.53
2018-02-25T15:01:17.512Z,7.30
2018-02-25T15:03:43.809Z,4.87
2018-02-25T15:06:10.019Z,7.37
2018-02-25T15:08:37.002Z,6.13
2018-02-25T15:11:03.178Z,3.70
2018-02-25T15:13:29.343Z,5.90
2018-02-25T15:15:55.608Z,5.17
2018-02-25T15:18:21.848Z,3.40
2018-02-25T15:20:48.092Z,5.77
2018-02-25T15:23:14.380Z,4.70
2018-02-25T15:25:40.541Z,4.63
2018-02-25T15:28:06.717Z,12.20
2018-02-25T15:30:32.891Z,6.80
2018-02-25T15:32:59.099Z,6.63
2018-02-25T15:35:25.283Z,5.30
2018-02-25T15:37:52.291Z,3.83
2018-02-25T15:40:18.527Z,4.40
2018-02-25T15:42:44.776Z,4.07
2018-02-25T15:45:11.787Z,3.90
2018-02-25T15:47:38.021Z,5.00
2018-02-25T15:50:05.005Z,8.17
2018-02-25T15:52:32.006Z,5.47
2018-02-25T15:54:58.249Z,4.13
2018-02-25T15:57:25.160Z,5.80
2018-02-25T15:59:51.344Z,4.90
2018-02-25T16:02:18.310Z,4.77
2018-02-25T16:04:46.671Z,4.07
2018-02-25T16:07:13.632Z,5.67
2018-02-25T16:09:39.805Z,3.30
2018-02-25T16:12:06.054Z,4.50
2018-02-25T16:14:33.055Z,5.40
2018-02-25T16:16:59.216Z,4.03
2018-02-25T16:19:25.475Z,5.80
2018-02-25T16:21:51.683Z,5.20
2018-02-25T16:24:18.679Z,7.97
2018-02-25T16:26:44.947Z,5.23
2018-02-25T16:29:11.197Z,8.00
2018-02-25T16:31:38.169Z,10.30
2018-02-25T16:34:04.403Z,7.73
2018-02-25T16:36:30.657Z,7.93
2018-02-25T16:38:56.869Z,6.07
2018-02-25T16:41:23.075Z,6.17
2018-02-25T16:43:49.961Z,8.70
2018-02-25T16:46:16.181Z,8.57
2018-02-25T16:48:42.413Z,9.60
2018-02-25T16:51:08.622Z,8.13
2018-02-25T16:53:34.863Z,5.33
2018-02-25T16:56:01.057Z,6.67
2018-02-25T16:58:28.048Z,9.13
2018-02-25T17:00:54.336Z,6.93
2018-02-25T17:03:20.571Z,7.83
2018-02-25T17:05:46.810Z,7.90
2018-02-25T17:08:13.024Z,9.30
2018-02-25T17:10:39.301Z,12.73
2018-02-25T17:13:05.454Z,9.97
2018-02-25T17:15:32.396Z,7.87
2018-02-25T17:17:59.282Z,12.73
2018-02-25T17:20:25.524Z,7.40
2018-02-25T17:22:51.719Z,6.77
2018-02-25T17:25:17.947Z,8.23
2018-02-25T17:27:44.904Z,8.40
2018-02-25T17:30:11.076Z,6.57
2018-02-25T17:32:37.353Z,9.47
2018-02-25T17:35:03.496Z,7.67
2018-02-25T17:37:29.694Z,5.80
2018-02-25T17:39:56.659Z,8.30
2018-02-25T17:42:23.547Z,5.53
2018-02-25T17:44:49.783Z,8.00
2018-02-25T17:47:16.036Z,11.30
2018-02-25T17:49:42.985Z,6.60
2018-02-25T17:52:09.160Z,6.00
2018-02-25T17:54:35.288Z,5.67
2018-02-25T17:57:01.475Z,7.07
2018-02-25T17:59:28.395Z,7.10
2018-02-25T18:01:55.414Z,7.77
2018-02-25T18:04:22.237Z,5.07
2018-02-25T18:06:48.428Z,5.50
2018-02-25T18:09:15.383Z,4.40
2018-02-25T18:11:42.309Z,6.17
2018-02-25T18:14:09.227Z,7.37
2018-02-25T18:16:35.419Z,6.27
2018-02-25T18:19:01.594Z,7.37
2018-02-25T18:21:27.801Z,8.30
2018-02-25T18:23:53.967Z,5.53
2018-02-25T18:26:20.888Z,5.77
2018-02-25T18:28:47.101Z,3.50
2018-02-25T18:31:13.352Z,8.20
2018-02-25T18:33:40.308Z,5.10
2018-02-25T18:36:06.517Z,3.03
2018-02-25T18:38:32.768Z,5.43
2018-02-25T18:40:59.085Z,8.93
2018-02-25T18:43:25.261Z,4.87
2018-02-25T18:45:51.533Z,5.40
2018-02-25T18:48:17.747Z,6.57
2018-02-25T18:50:43.972Z,6.13
2018-02-25T18:53:10.231Z,7.00
2018-02-25T18:55:37.227Z,5.87
2018-02-25T18:58:03.413Z,3.93
2018-02-25T19:00:30.388Z,2.80
2018-02-25T19:02:56.631Z,7.60
2018-02-25T19:05:22.821Z,4.67
2018-02-25T19:07:49.796Z,7.10
2018-02-25T19:10:16.061Z,4.37
2018-02-25T19:12:42.271Z,5.53
2018-02-25T19:15:08.561Z,6.00
2018-02-25T19:17:34.822Z,5.83
2018-02-25T19:20:01.091Z,4.80
2018-02-25T19:22:27.279Z,6.77
2018-02-25T19:24:53.482Z,4.13
2018-02-25T19:27:19.715Z,8.17
2018-02-25T19:29:45.943Z,3.43
2018-02-25T19:32:12.168Z,4.93
2018-02-25T19:34:38.387Z,6.87
2018-02-25T19:37:11.420Z,5.50
2018-02-25T19:39:43.814Z,4.70
2018-02-25T19:42:10.957Z,6.50
2018-02-25T19:44:37.141Z,5.20
2018-02-25T19:47:03.374Z,4.63
2018-02-25T19:49:29.562Z,6.70
2018-02-25T19:51:56.553Z,4.07
2018-02-25T19:54:22.741Z,6.57
2018-02-25T19:56:49.736Z,5.03
2018-02-25T19:59:15.956Z,5.40
2018-02-25T20:01:42.130Z,8.80
2018-02-25T20:04:09.071Z,3.97
2018-02-25T20:06:35.255Z,4.97
2018-02-25T20:09:01.795Z,3.23
2018-02-25T20:11:28.082Z,3.80
2018-02-25T20:13:55.042Z,9.13
2018-02-25T20:16:22.038Z,3.43
2018-02-25T20:18:48.331Z,5.70
2018-02-25T20:21:14.482Z,6.27
2018-02-25T20:23:40.727Z,5.23
2018-02-25T20:26:06.967Z,4.97
2018-02-25T20:28:33.172Z,7.83
2018-02-25T20:30:59.399Z,4.00
2018-02-25T20:33:25.571Z,5.87
2018-02-25T20:35:52.474Z,3.67
2018-02-25T20:38:18.719Z,3.13
2018-02-25T20:40:44.982Z,5.20
2018-02-25T20:43:11.938Z,6.63
2018-02-25T20:45:38.066Z,4.20
2018-02-25T20:48:04.282Z,6.17
2018-02-25T20:50:31.190Z,9.10
2018-02-25T20:52:57.392Z,4.07
2018-02-25T20:55:23.607Z,5.47
2018-02-25T20:57:49.999Z,5.83
2018-02-25T21:00:16.982Z,6.00
2018-02-25T21:02:43.194Z,5.70
2018-02-25T21:05:09.427Z,4.67
2018-02-25T21:07:35.650Z,4.67
2018-02-25T21:10:01.906Z,5.43
2018-02-25T21:12:28.145Z,3.53
2018-02-25T21:14:54.284Z,3.47
2018-02-25T21:17:20.520Z,5.67
2018-02-25T21:19:46.715Z,6.40
2018-02-25T21:22:12.957Z,3.80
2018-02-25T21:24:39.151Z,5.67
2018-02-25T21:27:05.293Z,5.90
2018-02-25T21:29:31.478Z,4.83
2018-02-25T21:31:58.450Z,5.70
2018-02-25T21:34:24.644Z,6.57
2018-02-25T21:36:50.794Z,3.40
2018-02-25T21:39:17.679Z,5.33
2018-02-25T21:41:43.867Z,7.50
2018-02-25T21:44:17.066Z,8.00
2018-02-25T21:46:43.318Z,4.27
2018-02-25T21:49:09.540Z,4.57
2018-02-25T21:51:35.794Z,6.83
2018-02-25T21:54:02.033Z,6.23
2018-02-25T21:56:34.429Z,5.80
2018-02-25T21:59:07.425Z,7.47
2018-02-25T22:01:40.615Z,5.97
2018-02-25T22:04:07.539Z,5.10
2018-02-25T22:06:33.758Z,5.30
2018-02-25T22:09:00.024Z,9.73
2018-02-25T22:11:26.908Z,8.90
2018-02-25T22:13:53.154Z,5.40
2018-02-25T22:16:19.406Z,8.50
2018-02-25T22:18:46.351Z,8.13
2018-02-25T22:21:13.282Z,8.80
2018-02-25T22:23:39.470Z,8.97
2018-02-25T22:26:05.657Z,11.17
2018-02-25T22:28:32.607Z,10.33
2018-02-25T22:30:59.567Z,10.07
2018-02-25T22:33:25.717Z,4.73
2018-02-25T22:35:51.942Z,6.53
2018-02-25T22:38:18.114Z,9.93
2018-02-25T22:40:44.274Z,9.13
2018-02-25T22:43:10.496Z,7.20
2018-02-25T22:45:36.702Z,7.40
2018-02-25T22:48:02.958Z,9.20
2018-02-25T22:50:29.217Z,11.07
2018-02-25T22:52:55.398Z,9.40
2018-02-25T22:55:22.273Z,9.90
2018-02-25T22:57:48.471Z,9.50
2018-02-25T23:00:21.357Z,9.83
2018-02-25T23:02:48.368Z,6.60
2018-02-25T23:05:14.562Z,8.70
2018-02-25T23:07:40.752Z,16.30
2018-02-25T23:10:07.730Z,12.20
2018-02-25T23:12:33.957Z,12.07
2018-02-25T23:15:00.132Z,3.83
2018-02-25T23:17:26.347Z,9.10
2018-02-25T23:19:52.558Z,7.40
2018-02-25T23:22:18.734Z,9.27
2018-02-25T23:24:44.944Z,10.00
2018-02-25T23:27:11.103Z,7.23
2018-02-25T23:29:38.110Z,11.07
2018-02-25T23:32:04.292Z,6.60
2018-02-25T23:34:30.486Z,7.90
2018-02-25T23:36:56.718Z,6.27
2018-02-25T23:39:23.659Z,7.33
2018-02-25T23:41:50.563Z,18.23
2018-02-25T23:44:16.710Z,18.97
2018-02-25T23:46:42.912Z,11.90
2018-02-25T23:49:09.050Z,7.63
2018-02-25T23:51:35.212Z,8.83
2018-02-25T23:54:02.171Z,7.40
2018-02-25T23:56:28.361Z,11.00
2018-02-25T23:58:54.501Z,10.47
